createdAt,value
2023-03-05T00:03:02.694Z,-11061.91
2023-03-05T00:06:09.358Z,-11068.22
2023-03-05T00:09:15.898Z,-11068.06
2023-03-05T00:12:22.240Z,-11076.34
2023-03-05T00:15:28.449Z,-11077.19
2023-03-05T00:18:36.670Z,-11074.97
2023-03-05T00:21:43.580Z,-11069.75
2023-03-05T00:24:51.986Z,-11056.56
2023-03-05T00:27:57.893Z,-11049.84
2023-03-05T00:31:04.525Z,-11045.22
2023-03-05T00:34:14.684Z,-11051.66
2023-03-05T00:37:21.054Z,-11055.59
2023-03-05T00:40:27.218Z,-11059.09
2023-03-05T00:43:33.502Z,-11063.44
2023-03-05T00:46:40.640Z,-11064.00
2023-03-05T00:49:48.618Z,-11058.81
2023-03-05T00:52:55.192Z,-11059.81
2023-03-05T00:56:01.713Z,-11056.56
2023-03-05T00:59:08.615Z,-11056.56
2023-03-05T01:02:16.149Z,-11063.72
2023-03-05T01:05:24.074Z,-11056.72
2023-03-05T01:08:30.702Z,-11047.31
2023-03-05T01:11:37.022Z,-11041.84
2023-03-05T01:14:43.586Z,-11049.00
2023-03-05T01:17:49.856Z,-11052.63
2023-03-05T01:20:57.673Z,-11051.66
2023-03-05T01:24:05.154Z,-11045.91
2023-03-05T01:27:11.610Z,-11045.06
2023-03-05T01:30:18.012Z,-11049.13
2023-03-05T01:33:24.268Z,-11041.69
2023-03-05T01:36:32.205Z,-11013.94
2023-03-05T01:39:38.456Z,-11016.31
2023-03-05T01:42:47.212Z,-11016.16
2023-03-05T01:46:34.902Z,-11022.62
2023-03-05T01:49:42.685Z,-11033.56
2023-03-05T01:52:54.690Z,-11039.72
2023-03-05T01:56:01.112Z,-11041.00
2023-03-05T01:59:07.669Z,-11032.56
2023-03-05T02:02:14.987Z,-11048.44
2023-03-05T02:05:27.240Z,-11054.75
2023-03-05T02:08:34.887Z,-11055.44
2023-03-05T02:11:41.664Z,-11056.84
2023-03-05T02:14:58.585Z,-11053.75
2023-03-05T02:18:05.291Z,-11045.34
2023-03-05T02:21:13.222Z,-11052.50
2023-03-05T02:24:33.083Z,-11052.78
2023-03-05T02:27:41.858Z,-11042.41
2023-03-05T02:30:48.305Z,-11035.09
2023-03-05T02:33:56.113Z,-11039.72
2023-03-05T02:37:04.875Z,-11038.47
2023-03-05T02:40:13.189Z,-11041.56
2023-03-05T02:43:20.016Z,-11039.72
2023-03-05T02:46:26.605Z,-11037.50
2023-03-05T02:49:33.299Z,-11034.97
2023-03-05T02:52:41.609Z,-11037.91
2023-03-05T02:55:48.621Z,-11037.50
2023-03-05T02:58:55.261Z,-11033.28
2023-03-05T03:02:01.668Z,-11041.56
2023-03-05T03:05:08.880Z,-11040.56
2023-03-05T03:08:16.612Z,-11041.97
2023-03-05T03:11:23.013Z,-11031.03
2023-03-05T03:14:31.970Z,-11037.22
2023-03-05T03:17:38.490Z,-11037.78
2023-03-05T03:20:44.966Z,-11035.66
2023-03-05T03:23:52.780Z,-11031.59
2023-03-05T03:26:58.889Z,-11035.53
2023-03-05T03:30:06.679Z,-11025.44
2023-03-05T03:33:12.930Z,-11022.91
2023-03-05T03:36:19.096Z,-11035.25
2023-03-05T03:39:26.746Z,-11022.06
2023-03-05T03:42:33.025Z,-11020.94
2023-03-05T03:45:42.968Z,-11023.75
2023-03-05T03:48:51.808Z,-11026.00
2023-03-05T03:51:58.884Z,-11019.66
2023-03-05T03:55:07.041Z,-11024.03
2023-03-05T03:58:13.305Z,-11030.47
2023-03-05T04:01:20.006Z,-11027.53
2023-03-05T04:04:26.840Z,-11031.31
2023-03-05T04:07:32.876Z,-11033.56
2023-03-05T04:10:40.877Z,-11038.34
2023-03-05T04:13:47.393Z,-11043.53
2023-03-05T04:16:53.707Z,-11042.81
2023-03-05T04:20:00.245Z,-11035.94
2023-03-05T04:23:06.655Z,-11043.09
2023-03-05T04:26:14.598Z,-11047.31
2023-03-05T04:29:21.284Z,-11049.00
2023-03-05T04:32:28.754Z,-11050.69
2023-03-05T04:35:35.040Z,-11051.78
2023-03-05T04:38:41.418Z,-11050.69
2023-03-05T04:41:49.385Z,-11051.09
2023-03-05T04:44:55.592Z,-11051.50
2023-03-05T04:48:02.222Z,-11048.72
2023-03-05T04:51:08.406Z,-11050.69
2023-03-05T04:54:14.862Z,-11050.41
2023-03-05T04:57:23.835Z,-11056.56
2023-03-05T05:00:30.347Z,-11057.69
2023-03-05T05:03:36.611Z,-11057.13
2023-03-05T05:06:43.256Z,-11060.22
2023-03-05T05:09:49.369Z,-11057.41
2023-03-05T05:12:57.261Z,-11058.69
2023-03-05T05:16:03.872Z,-11055.16
2023-03-05T05:19:10.214Z,-11063.31
2023-03-05T05:22:16.457Z,-11060.78
2023-03-05T05:25:22.551Z,-11061.34
2023-03-05T05:28:30.733Z,-11060.50
2023-03-05T05:31:37.008Z,-11062.19
2023-03-05T05:34:43.381Z,-11069.34
2023-03-05T05:37:49.995Z,-11071.88
2023-03-05T05:40:56.581Z,-11071.72
2023-03-05T05:44:04.323Z,-11067.22
2023-03-05T05:47:10.477Z,-11064.00
2023-03-05T05:50:16.999Z,-11057.41
2023-03-05T05:53:23.541Z,-11058.69
2023-03-05T05:56:30.069Z,-11066.94
2023-03-05T05:59:38.425Z,-11067.78
2023-03-05T06:02:45.316Z,-11071.44
2023-03-05T06:05:52.129Z,-11078.03
2023-03-05T06:08:58.934Z,-11075.66
2023-03-05T06:12:06.036Z,-11077.63
2023-03-05T06:15:14.222Z,-11073.69
2023-03-05T06:18:20.560Z,-11077.47
2023-03-05T06:21:26.934Z,-11081.28
2023-03-05T06:24:32.847Z,-11081.84
2023-03-05T06:27:39.467Z,-11091.38
2023-03-05T06:30:46.950Z,-11088.28
2023-03-05T06:33:54.600Z,-11085.47
2023-03-05T06:37:00.896Z,-11090.25
2023-03-05T06:40:08.462Z,-11100.22
2023-03-05T06:43:14.565Z,-11098.81
2023-03-05T06:46:24.513Z,-11101.78
2023-03-05T06:49:30.696Z,-11088.84
2023-03-05T06:52:38.994Z,-11099.81
2023-03-05T06:55:45.363Z,-11102.06
2023-03-05T06:58:53.411Z,-11112.72
2023-03-05T07:02:01.393Z,-11115.13
2023-03-05T07:05:09.060Z,-11106.28
2023-03-05T07:08:15.527Z,-11121.72
2023-03-05T07:11:22.567Z,-11125.09
2023-03-05T07:14:29.070Z,-11117.50
2023-03-05T07:17:36.779Z,-11096.44
2023-03-05T07:20:43.139Z,-11109.78
2023-03-05T07:23:49.320Z,-11116.38
2023-03-05T07:26:55.660Z,-11127.34
2023-03-05T07:30:02.135Z,-11124.25
2023-03-05T07:33:09.585Z,-11115.53
2023-03-05T07:36:16.822Z,-11121.16
2023-03-05T07:39:23.400Z,-11119.88
2023-03-05T07:42:29.918Z,-11119.88
2023-03-05T07:45:36.244Z,-11125.22
2023-03-05T07:48:43.706Z,-11136.88
2023-03-05T07:51:50.223Z,-11140.53
2023-03-05T07:54:56.231Z,-11170.91
2023-03-05T07:58:02.817Z,-11178.34
2023-03-05T08:01:14.601Z,-11182.69
2023-03-05T08:04:22.483Z,-11178.19
2023-03-05T08:07:29.004Z,-11158.53
2023-03-05T08:10:35.406Z,-11183.53
2023-03-05T08:13:41.822Z,-11172.59
2023-03-05T08:16:50.559Z,-11185.50
2023-03-05T08:20:00.323Z,-11181.56
2023-03-05T08:23:06.621Z,-11178.75
2023-03-05T08:26:14.759Z,-11175.94
2023-03-05T08:29:20.873Z,-11168.94
2023-03-05T08:32:27.177Z,-11165.28
2023-03-05T08:35:34.910Z,-11196.47
2023-03-05T08:38:42.283Z,-11203.78
2023-03-05T08:41:48.878Z,-11186.63
2023-03-05T08:44:55.252Z,-11201.25
2023-03-05T08:48:01.790Z,-11218.13
2023-03-05T08:51:11.228Z,-11212.50
2023-03-05T08:54:17.751Z,-11208.72
2023-03-05T08:57:23.883Z,-11224.03
2023-03-05T09:00:30.500Z,-11206.59
2023-03-05T09:03:36.769Z,-11211.38
2023-03-05T09:06:44.297Z,-11210.25
2023-03-05T09:09:50.900Z,-11179.19
2023-03-05T09:12:57.212Z,-11214.47
2023-03-05T09:16:06.517Z,-11209.41
2023-03-05T09:19:15.266Z,-11209.13
2023-03-05T09:22:23.275Z,-11230.22
2023-03-05T09:25:29.299Z,-11237.69
2023-03-05T09:28:35.412Z,-11245.44
2023-03-05T09:31:41.692Z,-11226.44
2023-03-05T09:34:48.307Z,-11223.19
2023-03-05T09:37:56.037Z,-11238.81
2023-03-05T09:41:08.067Z,-11243.47
2023-03-05T09:44:27.548Z,-11240.34
2023-03-05T09:47:47.507Z,-11236.84
2023-03-05T09:51:00.409Z,-11258.66
2023-03-05T09:54:13.760Z,-11260.63
2023-03-05T09:57:25.510Z,-11246.56
2023-03-05T10:00:37.438Z,-11254.56
2023-03-05T10:03:53.200Z,-11262.03
2023-03-05T10:07:06.866Z,-11265.41
2023-03-05T10:10:22.648Z,-11283.13
2023-03-05T10:13:34.098Z,-11284.97
2023-03-05T10:16:57.440Z,-11268.22
2023-03-05T10:20:25.692Z,-11270.75
2023-03-05T10:23:49.905Z,-11263.44
2023-03-05T10:27:06.507Z,-11250.06
2023-03-05T10:30:35.392Z,-11246.28
2023-03-05T10:33:50.641Z,-11249.78
2023-03-05T10:37:17.089Z,-11259.50
2023-03-05T10:40:32.741Z,-11272.59
2023-03-05T10:43:49.288Z,-11278.34
2023-03-05T10:46:59.495Z,-11274.41
2023-03-05T10:50:17.271Z,-11258.38
2023-03-05T10:53:29.300Z,-11285.13
2023-03-05T10:56:35.574Z,-11269.91
2023-03-05T10:59:48.092Z,-11237.41
2023-03-05T11:02:58.074Z,-11248.53
2023-03-05T11:06:05.031Z,-11264.28
2023-03-05T11:09:32.300Z,-11238.09
2023-03-05T11:12:39.847Z,-11251.63
2023-03-05T11:16:01.409Z,-11229.37
2023-03-05T11:19:26.948Z,-11217.28
2023-03-05T11:22:36.035Z,-11239.38
2023-03-05T11:25:58.267Z,-11231.50
2023-03-05T11:29:10.991Z,-11215.31
2023-03-05T11:32:23.027Z,-11218.84
2023-03-05T11:35:34.962Z,-11223.19
2023-03-05T11:38:52.274Z,-11251.63
2023-03-05T11:42:01.967Z,-11243.88
2023-03-05T11:45:15.723Z,-11264.56
2023-03-05T11:48:28.277Z,-11253.44
2023-03-05T11:51:41.643Z,-11262.72
2023-03-05T11:54:58.179Z,-11240.50
2023-03-05T11:58:23.293Z,-11239.94
2023-03-05T12:01:33.650Z,-11242.31
2023-03-05T12:04:41.192Z,-11235.03
2023-03-05T12:07:51.540Z,-11232.19
2023-03-05T12:10:59.461Z,-11237.69
2023-03-05T12:14:12.065Z,-11232.47
2023-03-05T12:17:25.584Z,-11235.59
2023-03-05T12:20:42.544Z,-11268.94
2023-03-05T12:23:59.108Z,-11268.78
2023-03-05T12:27:11.748Z,-11295.53
2023-03-05T12:30:56.825Z,-11264.72
2023-03-05T12:34:51.936Z,-11262.88
2023-03-05T12:38:32.498Z,-11293.84
2023-03-05T12:41:39.746Z,-11264.16
2023-03-05T12:44:45.681Z,-11279.63
2023-03-05T12:48:31.467Z,-11246.97
2023-03-05T12:51:41.030Z,-11266.25
2023-03-05T12:55:04.950Z,-11263.31
2023-03-05T12:58:14.825Z,-11251.91
2023-03-05T13:01:37.450Z,-11258.50
2023-03-05T13:04:47.264Z,-11256.25
2023-03-05T13:07:53.568Z,-11257.25
2023-03-05T13:11:03.829Z,-11264.44
2023-03-05T13:14:32.086Z,-11265.41
2023-03-05T13:17:44.456Z,-11238.66
2023-03-05T13:21:02.659Z,-11244.44
2023-03-05T13:24:17.985Z,-11252.47
2023-03-05T13:27:31.328Z,-11257.81
2023-03-05T13:30:37.599Z,-11245.28
2023-03-05T13:33:53.426Z,-11259.22
2023-03-05T13:37:01.868Z,-11267.81
2023-03-05T13:40:22.070Z,-11258.38
2023-03-05T13:43:29.736Z,-11283.56
2023-03-05T13:46:38.760Z,-11258.66
2023-03-05T13:49:45.528Z,-11258.38
2023-03-05T13:52:51.843Z,-11273.00
2023-03-05T13:56:01.232Z,-11283.13
2023-03-05T13:59:19.036Z,-11244.16
2023-03-05T14:02:25.490Z,-11255.13
2023-03-05T14:05:32.645Z,-11247.41
2023-03-05T14:08:39.352Z,-11261.59
2023-03-05T14:11:54.384Z,-11261.75
2023-03-05T14:15:06.947Z,-11257.81
2023-03-05T14:18:20.847Z,-11252.03
2023-03-05T14:21:27.830Z,-11257.81
2023-03-05T14:24:34.226Z,-11263.16
2023-03-05T14:27:40.740Z,-11269.06
2023-03-05T14:30:48.944Z,-11244.59
2023-03-05T14:34:03.180Z,-11221.50
2023-03-05T14:37:22.634Z,-11231.22
2023-03-05T14:40:31.109Z,-11239.94
2023-03-05T14:43:37.345Z,-11217.56
2023-03-05T14:46:49.545Z,-11197.47
2023-03-05T14:49:55.842Z,-11193.81
2023-03-05T14:53:04.763Z,-11192.69
2023-03-05T14:56:19.719Z,-11193.66
2023-03-05T14:59:26.043Z,-11188.03
2023-03-05T15:02:33.929Z,-11185.66
2023-03-05T15:05:41.135Z,-11181.28
2023-03-05T15:08:47.765Z,-11175.66
2023-03-05T15:11:54.171Z,-11169.63
2023-03-05T15:15:00.388Z,-11173.84
2023-03-05T15:18:08.474Z,-11179.88
2023-03-05T15:21:14.917Z,-11170.34
2023-03-05T15:24:39.565Z,-11176.50
2023-03-05T15:27:46.627Z,-11170.34
2023-03-05T15:30:53.190Z,-11168.94
2023-03-05T15:34:00.615Z,-11159.94
2023-03-05T15:37:06.743Z,-11164.84
2023-03-05T15:40:14.235Z,-11163.44
2023-03-05T15:43:20.970Z,-11151.06
2023-03-05T15:46:27.510Z,-11155.16
2023-03-05T15:49:35.041Z,-11159.22
2023-03-05T15:52:41.263Z,-11165.00
2023-03-05T15:55:47.290Z,-11149.53
2023-03-05T15:58:53.740Z,-11149.94
2023-03-05T16:01:59.954Z,-11150.78
2023-03-05T16:05:09.102Z,-11141.66
2023-03-05T16:08:15.565Z,-11135.34
2023-03-05T16:11:22.729Z,-11136.75
2023-03-05T16:14:31.626Z,-11140.41
2023-03-05T16:17:40.250Z,-11136.88
2023-03-05T16:20:48.864Z,-11139.13
2023-03-05T16:23:55.067Z,-11130.41
2023-03-05T16:27:01.515Z,-11129.16
2023-03-05T16:30:09.208Z,-11131.53
2023-03-05T16:33:15.558Z,-11125.78
2023-03-05T16:36:26.078Z,-11132.66
2023-03-05T16:39:32.275Z,-11135.63
2023-03-05T16:42:38.705Z,-11136.59
2023-03-05T16:45:44.967Z,-11127.63
2023-03-05T16:48:51.642Z,-11128.03
2023-03-05T16:52:01.432Z,-11137.59
2023-03-05T16:55:12.283Z,-11135.63
2023-03-05T16:58:18.591Z,-11139.41
2023-03-05T17:01:25.922Z,-11126.91
2023-03-05T17:04:32.365Z,-11132.38
2023-03-05T17:07:40.454Z,-11143.22
2023-03-05T17:10:47.224Z,-11136.31
2023-03-05T17:13:53.587Z,-11134.06
2023-03-05T17:16:59.440Z,-11145.31
2023-03-05T17:20:06.881Z,-11141.09
2023-03-05T17:23:14.718Z,-11141.94
2023-03-05T17:26:21.719Z,-11136.31
2023-03-05T17:29:28.119Z,-11136.59
2023-03-05T17:32:34.331Z,-11136.75
2023-03-05T17:35:41.116Z,-11132.53
2023-03-05T17:38:50.340Z,-11136.47
2023-03-05T17:41:56.602Z,-11127.34
2023-03-05T17:45:04.597Z,-11127.91
2023-03-05T17:48:12.522Z,-11135.47
2023-03-05T17:51:18.923Z,-11133.22
2023-03-05T17:54:27.003Z,-11129.59
2023-03-05T17:57:33.419Z,-11130.69
2023-03-05T18:00:39.588Z,-11129.31
2023-03-05T18:03:45.815Z,-11132.81
2023-03-05T18:06:52.278Z,-11127.63
2023-03-05T18:10:00.493Z,-11128.47
2023-03-05T18:13:07.211Z,-11125.94
2023-03-05T18:16:17.005Z,-11121.44
2023-03-05T18:19:24.049Z,-11115.81
2023-03-05T18:22:30.222Z,-11119.75
2023-03-05T18:25:37.852Z,-11116.09
2023-03-05T18:28:44.658Z,-11114.13
2023-03-05T18:31:50.764Z,-11117.78
2023-03-05T18:34:57.126Z,-11112.59
2023-03-05T18:38:03.467Z,-11114.84
2023-03-05T18:41:19.902Z,-11112.88
2023-03-05T18:44:26.935Z,-11106.97
2023-03-05T18:47:34.114Z,-11110.75
2023-03-05T18:50:40.377Z,-11099.94
2023-03-05T18:53:47.650Z,-11104.88
2023-03-05T18:56:55.064Z,-11099.81
2023-03-05T19:00:01.252Z,-11098.41
2023-03-05T19:03:07.617Z,-11096.00
2023-03-05T19:06:13.793Z,-11096.00
2023-03-05T19:09:59.625Z,-11094.88
2023-03-05T19:13:35.917Z,-11094.47
2023-03-05T19:16:44.266Z,-11094.47
2023-03-05T19:19:51.923Z,-11099.09
2023-03-05T19:22:58.113Z,-11095.16
2023-03-05T19:26:04.653Z,-11095.16
2023-03-05T19:29:12.844Z,-11094.19
2023-03-05T19:32:21.171Z,-11093.34
2023-03-05T19:35:27.470Z,-11096.72
2023-03-05T19:38:33.752Z,-11090.13
2023-03-05T19:41:39.935Z,-11087.72
2023-03-05T19:44:47.508Z,-11094.47
2023-03-05T19:47:53.880Z,-11092.66
2023-03-05T19:51:00.396Z,-11089.69
2023-03-05T19:54:06.707Z,-11088.84
2023-03-05T19:57:13.177Z,-11093.06
2023-03-05T20:00:21.977Z,-11092.38
2023-03-05T20:03:28.045Z,-11092.78
2023-03-05T20:06:35.288Z,-11093.22
2023-03-05T20:09:41.760Z,-11084.06
2023-03-05T20:12:50.554Z,-11089.69
2023-03-05T20:15:59.057Z,-11091.94
2023-03-05T20:19:08.849Z,-11089.56
2023-03-05T20:22:15.334Z,-11087.88
2023-03-05T20:25:24.909Z,-11083.50
2023-03-05T20:28:31.022Z,-11084.06
2023-03-05T20:31:39.404Z,-11084.50
2023-03-05T20:34:45.662Z,-11087.44
2023-03-05T20:38:25.175Z,-11082.13
2023-03-05T20:41:32.138Z,-11083.78
2023-03-05T20:44:38.434Z,-11084.78
2023-03-05T20:47:46.602Z,-11079.03
2023-03-05T20:50:52.997Z,-11078.47
2023-03-05T20:54:03.373Z,-11076.63
2023-03-05T20:57:09.722Z,-11075.66
2023-03-05T21:00:16.851Z,-11075.09
2023-03-05T21:03:25.621Z,-11079.59
2023-03-05T21:06:33.210Z,-11079.16
2023-03-05T21:09:39.635Z,-11078.88
2023-03-05T21:12:46.615Z,-11068.78
2023-03-05T21:15:53.525Z,-11066.25
2023-03-05T21:19:01.241Z,-11063.59
2023-03-05T21:22:07.413Z,-11067.50
2023-03-05T21:25:21.177Z,-11061.06
2023-03-05T21:28:27.558Z,-11061.19
2023-03-05T21:31:34.410Z,-11060.50
2023-03-05T21:34:44.324Z,-11060.22
2023-03-05T21:37:52.674Z,-11052.91
2023-03-05T21:40:59.888Z,-11056.56
2023-03-05T21:44:06.734Z,-11057.00
2023-03-05T21:47:13.845Z,-11059.25
2023-03-05T21:50:22.213Z,-11059.81
2023-03-05T21:53:28.450Z,-11057.41
2023-03-05T21:56:34.918Z,-11053.63
2023-03-05T21:59:41.558Z,-11052.50
2023-03-05T22:02:47.853Z,-11055.44
2023-03-05T22:05:55.941Z,-11050.97
2023-03-05T22:09:02.213Z,-11049.28
2023-03-05T22:12:32.330Z,-11047.72
2023-03-05T22:15:43.043Z,-11051.50
2023-03-05T22:18:49.337Z,-11051.78
2023-03-05T22:21:57.757Z,-11053.47
2023-03-05T22:25:04.744Z,-11049.28
2023-03-05T22:28:12.117Z,-11047.31
2023-03-05T22:31:22.971Z,-11046.47
2023-03-05T22:34:29.242Z,-11049.69
2023-03-05T22:37:37.118Z,-11048.84
2023-03-05T22:40:45.337Z,-11050.69
2023-03-05T22:43:52.036Z,-11048.44
2023-03-05T22:46:58.098Z,-11048.16
2023-03-05T22:50:06.085Z,-11050.53
2023-03-05T22:53:14.305Z,-11052.06
2023-03-05T22:56:21.742Z,-11053.34
2023-03-05T22:59:29.989Z,-11050.69
2023-03-05T23:02:36.642Z,-11048.16
2023-03-05T23:05:43.391Z,-11049.84
2023-03-05T23:08:51.487Z,-11046.47
2023-03-05T23:11:57.498Z,-11049.28
2023-03-05T23:15:06.008Z,-11048.16
2023-03-05T23:18:14.421Z,-11045.22
2023-03-05T23:21:21.013Z,-11047.59
2023-03-05T23:24:28.623Z,-11046.75
2023-03-05T23:27:35.089Z,-11049.28
2023-03-05T23:30:43.245Z,-11050.53
2023-03-05T23:33:49.341Z,-11052.63
2023-03-05T23:36:55.757Z,-11054.31
2023-03-05T23:40:04.314Z,-11051.78
2023-03-05T23:43:11.050Z,-11048.84
2023-03-05T23:46:17.452Z,-11048.16
2023-03-05T23:49:23.793Z,-11049.00
2023-03-05T23:52:30.232Z,-11045.22
2023-03-05T23:55:42.534Z,-11048.72
2023-03-05T23:58:48.824Z,-11051.38
